America — WDE6076 — position and weather

sailwx.info

Track history (hours):
 
Tides and Currents Weather Stations Pressure Air Temp Water Temp Dewpoint Dewpoint Depression Visibility Wind Speed Wind Dir Waves Ship Positions

America

Owner: ET Yacht, LLC, San Diego, CA. More information available from US FCC via Universal Licensing System and Coast Guard Vessel Documentation Center.

Last reported at 2015-Aug-30 15:32 UTC. Time now 2015-Aug-30 16:00 UTC.
Position N 37°48' W 122°27'.

Length 42 m; draft 3.5 m.

Type: Sailing vessel. MMSI: 367375550.

Date/timePositionNaut miles runAvg speedWind from/ knotsBaromVisibWave heightAir tempDewpointWater temp
2015-Aug-30 15:32N 37°48' W 122°27'0 0.0
2015-Aug-30 14:28N 37°48' W 122°27'0 0.0
2015-Aug-30 13:19N 37°48' W 122°27'0 0.0
2015-Aug-30 12:23N 37°48' W 122°27'0 0.0
2015-Aug-30 11:28N 37°48' W 122°27'0 0.0
2015-Aug-30 10:30N 37°48' W 122°27'0 0.0
2015-Aug-30 09:33N 37°48' W 122°27'0 0.0
2015-Aug-30 08:26N 37°48' W 122°27'0 0.0
2015-Aug-30 07:31N 37°48' W 122°27'0 0.0
2015-Aug-30 06:31N 37°48' W 122°27'0 0.0
2015-Aug-30 05:24N 37°48' W 122°27'0 0.0
2015-Aug-30 04:31N 37°48' W 122°27'0 0.0
2015-Aug-30 03:33N 37°48' W 122°27'3 1.3
2015-Aug-30 01:21N 37°51' W 122°28'2 3.1
2015-Aug-30 00:33N 37°49' W 122°29'2 2.0
2015-Aug-29 23:33N 37°51' W 122°28'3 0.5
2015-Aug-29 18:33N 37°49' W 122°26'0 0.2
2015-Aug-29 17:30N 37°48' W 122°27'0 0.0
2015-Aug-29 16:29N 37°48' W 122°27'0 0.0
2015-Aug-29 15:31N 37°48' W 122°27'0 0.0
2015-Aug-29 14:27N 37°48' W 122°27'0 0.0
2015-Aug-29 13:31N 37°48' W 122°27'0 0.0
2015-Aug-29 12:33N 37°48' W 122°27'0 0.0
2015-Aug-29 11:33N 37°48' W 122°27'0 0.0
2015-Aug-29 10:33N 37°48' W 122°27'0 0.0
2015-Aug-29 09:23N 37°48' W 122°27'0 0.0
2015-Aug-29 08:26N 37°48' W 122°27'0 0.0
2015-Aug-29 06:25N 37°48' W 122°27'0 0.0
2015-Aug-29 05:32N 37°48' W 122°27'0 0.0
2015-Aug-29 04:31N 37°48' W 122°27'0 0.0
2015-Aug-29 03:28N 37°48' W 122°27'0 0.0
2015-Aug-29 02:31N 37°48' W 122°27'0 0.0
2015-Aug-29 01:33N 37°48' W 122°27'24 7.7
2015-Aug-28 22:29N 37°57' W 122°55'8 8.6
2015-Aug-28 21:33N 38°01' W 123°03'9 9.2
2015-Aug-28 20:33N 38°09' W 123°10'9 9.2
2015-Aug-28 19:33N 38°17' W 123°16'9 9.4
2015-Aug-28 18:33N 38°25' W 123°22'  
2015-Aug-25 19:23N 44°31' W 124°28'8 9.2
2015-Aug-25 18:32N 44°38' W 124°29'9 9.0
2015-Aug-25 17:33N 44°47' W 124°30'9 9.2
2015-Aug-25 16:33N 44°56' W 124°30'9 9.2
2015-Aug-25 15:33N 45°06' W 124°31'9 9.1
2015-Aug-25 14:32N 45°15' W 124°32'21 9.0
2015-Aug-25 12:11N 45°36' W 124°33'5 8.5
2015-Aug-25 11:33N 45°41' W 124°34'9 9.0
2015-Aug-25 10:33N 45°50' W 124°35'9 9.2
2015-Aug-25 09:33N 45°59' W 124°35'10 9.6
2015-Aug-25 08:33N 46°09' W 124°36'9 9.5
2015-Aug-25 07:33N 46°18' W 124°37'9 9.1
2015-Aug-25 06:33N 46°28' W 124°38'9 9.0
2015-Aug-25 05:33N 46°36' W 124°38'11 9.4
2015-Aug-25 04:25N 46°47' W 124°39'111 4.8
2015-Aug-24 05:29N 47°57' W 122°32'8 8.5
2015-Aug-24 04:33N 47°49' W 122°27'8 8.3
2015-Aug-24 03:33N 47°41' W 122°27'8 8.3
2015-Aug-24 02:33N 47°33' W 122°27'16 0.7
2015-Aug-23 02:15N 47°17' W 122°27'1 1.2
2015-Aug-23 01:33N 47°18' W 122°27'0 0.1
2015-Aug-22 22:30N 47°18' W 122°27'0 0.4
2015-Aug-22 21:33N 47°18' W 122°27'1 0.0
2015-Aug-22 01:33N 47°17' W 122°27'1 0.2
2015-Aug-21 22:33N 47°17' W 122°28'2 2.1
2015-Aug-21 21:32N 47°18' W 122°30'  
Track history (hours):
 
Tides and Currents Weather Stations Pressure Air Temp Water Temp Dewpoint Dewpoint Depression Visibility Wind Speed Wind Dir Waves Ship Positions

America

Owner: ET Yacht, LLC, San Diego, CA. More information available from US FCC via Universal Licensing System and Coast Guard Vessel Documentation Center.

Last reported at 2015-Aug-30 15:32 UTC. Time now 2015-Aug-30 16:00 UTC.
Position N 37°48' W 122°27'.

Length 42 m; draft 3.5 m.

Type: Sailing vessel. MMSI: 367375550.

Date/timePositionNaut miles runAvg speedWind from/ knotsBaromVisibWave heightAir tempDewpointWater temp
2015-Aug-30 15:32N 37°48' W 122°27'0 0.0
2015-Aug-30 14:28N 37°48' W 122°27'0 0.0
2015-Aug-30 13:19N 37°48' W 122°27'0 0.0
2015-Aug-30 12:23N 37°48' W 122°27'0 0.0
2015-Aug-30 11:28N 37°48' W 122°27'0 0.0
2015-Aug-30 10:30N 37°48' W 122°27'0 0.0
2015-Aug-30 09:33N 37°48' W 122°27'0 0.0
2015-Aug-30 08:26N 37°48' W 122°27'0 0.0
2015-Aug-30 07:31N 37°48' W 122°27'0 0.0
2015-Aug-30 06:31N 37°48' W 122°27'0 0.0
2015-Aug-30 05:24N 37°48' W 122°27'0 0.0
2015-Aug-30 04:31N 37°48' W 122°27'0 0.0
2015-Aug-30 03:33N 37°48' W 122°27'3 1.3
2015-Aug-30 01:21N 37°51' W 122°28'2 3.1
2015-Aug-30 00:33N 37°49' W 122°29'2 2.0
2015-Aug-29 23:33N 37°51' W 122°28'3 0.5
2015-Aug-29 18:33N 37°49' W 122°26'0 0.2
2015-Aug-29 17:30N 37°48' W 122°27'0 0.0
2015-Aug-29 16:29N 37°48' W 122°27'0 0.0
2015-Aug-29 15:31N 37°48' W 122°27'0 0.0
2015-Aug-29 14:27N 37°48' W 122°27'0 0.0
2015-Aug-29 13:31N 37°48' W 122°27'0 0.0
2015-Aug-29 12:33N 37°48' W 122°27'0 0.0
2015-Aug-29 11:33N 37°48' W 122°27'0 0.0
2015-Aug-29 10:33N 37°48' W 122°27'0 0.0
2015-Aug-29 09:23N 37°48' W 122°27'0 0.0
2015-Aug-29 08:26N 37°48' W 122°27'0 0.0
2015-Aug-29 06:25N 37°48' W 122°27'0 0.0
2015-Aug-29 05:32N 37°48' W 122°27'0 0.0
2015-Aug-29 04:31N 37°48' W 122°27'0 0.0
2015-Aug-29 03:28N 37°48' W 122°27'0 0.0
2015-Aug-29 02:31N 37°48' W 122°27'0 0.0
2015-Aug-29 01:33N 37°48' W 122°27'24 7.7
2015-Aug-28 22:29N 37°57' W 122°55'8 8.6
2015-Aug-28 21:33N 38°01' W 123°03'9 9.2
2015-Aug-28 20:33N 38°09' W 123°10'9 9.2
2015-Aug-28 19:33N 38°17' W 123°16'9 9.4
2015-Aug-28 18:33N 38°25' W 123°22'  
2015-Aug-25 19:23N 44°31' W 124°28'8 9.2
2015-Aug-25 18:32N 44°38' W 124°29'9 9.0
2015-Aug-25 17:33N 44°47' W 124°30'9 9.2
2015-Aug-25 16:33N 44°56' W 124°30'9 9.2
2015-Aug-25 15:33N 45°06' W 124°31'9 9.1
2015-Aug-25 14:32N 45°15' W 124°32'21 9.0
2015-Aug-25 12:11N 45°36' W 124°33'5 8.5
2015-Aug-25 11:33N 45°41' W 124°34'9 9.0
2015-Aug-25 10:33N 45°50' W 124°35'9 9.2
2015-Aug-25 09:33N 45°59' W 124°35'10 9.6
2015-Aug-25 08:33N 46°09' W 124°36'9 9.5
2015-Aug-25 07:33N 46°18' W 124°37'9 9.1
2015-Aug-25 06:33N 46°28' W 124°38'9 9.0
2015-Aug-25 05:33N 46°36' W 124°38'11 9.4
2015-Aug-25 04:25N 46°47' W 124°39'111 4.8
2015-Aug-24 05:29N 47°57' W 122°32'8 8.5
2015-Aug-24 04:33N 47°49' W 122°27'8 8.3
2015-Aug-24 03:33N 47°41' W 122°27'8 8.3
2015-Aug-24 02:33N 47°33' W 122°27'16 0.7
2015-Aug-23 02:15N 47°17' W 122°27'1 1.2
2015-Aug-23 01:33N 47°18' W 122°27'0 0.1
2015-Aug-22 22:30N 47°18' W 122°27'0 0.4
2015-Aug-22 21:33N 47°18' W 122°27'1 0.0
2015-Aug-22 01:33N 47°17' W 122°27'1 0.2
2015-Aug-21 22:33N 47°17' W 122°28'2 2.1
2015-Aug-21 21:32N 47°18' W 122°30'  

Dump ship's entire track history